Terminal Aerodrome Forecast
Issued by NWS

Home | Current Version | Previous Version | Text Only | Print | Product List | Glossary On
Versions: 1 2 3 4 5 6 7 8 9 10 11 12 13 14 15 16 17 18 19 20
000
FTUS42 KTAE 190133 AAA
TAFABY
TAF AMD
KABY 190133Z 1902/1924 00000KT 5SM -RA BR SCT020 BKN050
      TEMPO 1902/1904 3/4SM +RA BR OVC020
     FM190600 22003KT 6SM BR VCSH OVC015
     FM191300 20013G20KT 3SM TSRA SCT004 BKN020CB
     FM192000 21010KT P6SM OVC015=

USA.gov is the U.S. government's official web portal to all federal, state and local government web resources and services.